createdAt,value
2022-11-11T00:02:18.586Z,11.33
2022-11-11T00:04:46.631Z,11.30
2022-11-11T00:07:16.093Z,11.30
2022-11-11T00:09:44.078Z,11.31
2022-11-11T00:12:14.339Z,11.40
2022-11-11T00:14:44.778Z,11.43
2022-11-11T00:17:31.697Z,11.46
2022-11-11T00:20:18.800Z,11.47
2022-11-11T00:23:05.659Z,11.49
2022-11-11T00:25:33.719Z,11.44
2022-11-11T00:28:01.596Z,11.53
2022-11-11T00:30:29.454Z,11.52
2022-11-11T00:32:58.470Z,11.56
2022-11-11T00:35:44.166Z,11.56
2022-11-11T00:38:35.501Z,11.59
2022-11-11T00:41:03.309Z,11.61
2022-11-11T00:43:31.357Z,11.63
2022-11-11T00:46:19.235Z,11.62
2022-11-11T00:49:04.794Z,11.52
2022-11-11T00:51:32.608Z,11.59
2022-11-11T00:54:02.037Z,11.55
2022-11-11T00:56:30.527Z,11.56
2022-11-11T00:58:58.374Z,11.56
2022-11-11T01:01:26.513Z,11.55
2022-11-11T01:03:54.491Z,11.54
2022-11-11T01:06:22.429Z,11.47
2022-11-11T01:08:50.377Z,11.44
2022-11-11T01:11:22.254Z,11.41
2022-11-11T01:13:50.917Z,11.41
2022-11-11T01:16:21.701Z,11.32
2022-11-11T01:18:51.485Z,11.34
2022-11-11T01:21:21.300Z,11.29
2022-11-11T01:23:50.104Z,11.31
2022-11-11T01:26:24.777Z,11.29
2022-11-11T01:28:58.373Z,11.27
2022-11-11T01:31:27.966Z,11.25
2022-11-11T01:33:56.158Z,11.25
2022-11-11T01:36:26.071Z,11.19
2022-11-11T01:38:57.771Z,11.12
2022-11-11T01:41:35.742Z,11.14
2022-11-11T01:44:15.513Z,11.11
2022-11-11T01:46:47.130Z,11.07
2022-11-11T01:49:25.819Z,11.07
2022-11-11T01:51:58.373Z,10.96
2022-11-11T01:54:34.198Z,10.90
2022-11-11T01:57:09.998Z,11.06
2022-11-11T01:59:40.547Z,10.99
2022-11-11T02:02:16.795Z,10.97
2022-11-11T02:05:03.598Z,10.89
2022-11-11T02:07:33.239Z,10.88
2022-11-11T02:10:03.025Z,10.83
2022-11-11T02:12:58.150Z,10.85
2022-11-11T02:15:26.034Z,10.81
2022-11-11T02:17:55.034Z,10.74
2022-11-11T02:20:27.202Z,10.66
2022-11-11T02:23:02.157Z,10.63
2022-11-11T02:25:33.373Z,10.57
2022-11-11T02:28:05.538Z,10.54
2022-11-11T02:30:33.685Z,10.52
2022-11-11T02:33:02.323Z,10.52
2022-11-11T02:35:33.817Z,10.48
2022-11-11T02:38:07.191Z,10.43
2022-11-11T02:40:59.560Z,10.40
2022-11-11T02:43:28.385Z,10.42
2022-11-11T02:45:56.765Z,10.45
2022-11-11T02:48:25.602Z,10.48
2022-11-11T02:50:54.176Z,10.47
2022-11-11T02:53:22.905Z,10.47
2022-11-11T02:55:52.498Z,10.47
2022-11-11T02:58:20.854Z,10.47
2022-11-11T03:00:48.823Z,10.50
2022-11-11T03:03:16.780Z,10.51
2022-11-11T03:05:44.981Z,10.53
2022-11-11T03:08:13.197Z,10.50
2022-11-11T03:10:42.284Z,10.52
2022-11-11T03:13:11.703Z,10.51
2022-11-11T03:15:39.779Z,10.42
2022-11-11T03:18:06.842Z,10.43
2022-11-11T03:20:52.554Z,10.46
2022-11-11T03:23:21.357Z,10.48
2022-11-11T03:25:49.171Z,10.49
2022-11-11T03:28:20.579Z,10.48
2022-11-11T03:30:50.960Z,10.54
2022-11-11T03:33:19.870Z,10.54
2022-11-11T03:35:48.626Z,10.49
2022-11-11T03:38:24.113Z,10.48
2022-11-11T03:40:53.395Z,10.44
2022-11-11T03:43:24.249Z,10.42
2022-11-11T03:45:53.444Z,10.39
2022-11-11T03:48:21.646Z,10.42
2022-11-11T03:50:49.718Z,10.43
2022-11-11T03:53:20.125Z,10.46
2022-11-11T03:55:48.690Z,10.48
2022-11-11T03:58:16.714Z,10.48
2022-11-11T04:00:47.184Z,10.49
2022-11-11T04:03:34.219Z,10.45
2022-11-11T04:06:16.384Z,10.44
2022-11-11T04:09:01.901Z,10.49
2022-11-11T04:11:33.197Z,10.50
2022-11-11T04:14:22.594Z,10.48
2022-11-11T04:16:51.919Z,10.48
2022-11-11T04:19:37.494Z,10.50
2022-11-11T04:22:05.671Z,10.51
2022-11-11T04:24:51.882Z,10.46
2022-11-11T04:27:20.815Z,10.47
2022-11-11T04:29:48.037Z,10.53
2022-11-11T04:32:39.195Z,10.54
2022-11-11T04:35:10.069Z,10.50
2022-11-11T04:37:45.843Z,10.51
2022-11-11T04:40:31.742Z,10.52
2022-11-11T04:42:59.546Z,10.53
2022-11-11T04:45:31.339Z,10.53
2022-11-11T04:48:02.760Z,10.49
2022-11-11T04:50:32.282Z,10.50
2022-11-11T04:53:01.019Z,10.43
2022-11-11T04:55:47.160Z,10.50
2022-11-11T04:58:15.225Z,10.47
2022-11-11T05:00:43.197Z,10.44
2022-11-11T05:03:16.216Z,10.50
2022-11-11T05:06:03.986Z,10.45
2022-11-11T05:08:50.040Z,10.47
2022-11-11T05:11:25.305Z,10.53
2022-11-11T05:14:12.067Z,10.44
2022-11-11T05:17:00.104Z,10.53
2022-11-11T05:19:47.292Z,10.52
2022-11-11T05:22:19.315Z,10.59
2022-11-11T05:25:04.503Z,10.63
2022-11-11T05:27:32.740Z,10.63
2022-11-11T05:30:00.895Z,10.67
2022-11-11T05:32:29.010Z,10.74
2022-11-11T05:34:58.259Z,10.78
2022-11-11T05:37:26.145Z,10.79
2022-11-11T05:39:54.101Z,10.80
2022-11-11T05:42:22.169Z,10.76
2022-11-11T05:44:50.194Z,10.72
2022-11-11T05:47:17.973Z,10.79
2022-11-11T05:49:45.888Z,10.78
2022-11-11T05:52:17.285Z,10.78
2022-11-11T05:54:45.785Z,10.69
2022-11-11T05:57:14.057Z,10.75
2022-11-11T05:59:43.715Z,10.70
2022-11-11T06:02:12.201Z,10.68
2022-11-11T06:04:40.573Z,10.77
2022-11-11T06:07:08.708Z,10.75
2022-11-11T06:09:38.483Z,10.72
2022-11-11T06:12:09.626Z,10.71
2022-11-11T06:14:37.450Z,10.67
2022-11-11T06:17:05.478Z,10.69
2022-11-11T06:19:33.514Z,10.62
2022-11-11T06:22:04.007Z,10.64
2022-11-11T06:24:32.016Z,10.59
2022-11-11T06:27:02.233Z,10.59
2022-11-11T06:29:30.165Z,10.60
2022-11-11T06:31:59.971Z,10.60
2022-11-11T06:34:27.963Z,10.58
2022-11-11T06:36:55.796Z,10.60
2022-11-11T06:39:24.617Z,10.63
2022-11-11T06:41:52.760Z,10.59
2022-11-11T06:44:22.050Z,10.57
2022-11-11T06:46:49.907Z,10.63
2022-11-11T06:49:17.772Z,10.59
2022-11-11T06:51:45.644Z,10.55
2022-11-11T06:54:13.815Z,10.68
2022-11-11T06:56:49.169Z,10.64
2022-11-11T06:59:17.780Z,10.52
2022-11-11T07:01:47.091Z,10.65
2022-11-11T07:04:15.058Z,10.61
2022-11-11T07:06:44.070Z,10.67
2022-11-11T07:09:11.991Z,10.68
2022-11-11T07:11:39.909Z,10.64
2022-11-11T07:14:10.230Z,10.63
2022-11-11T07:16:38.199Z,10.54
2022-11-11T07:19:07.691Z,10.68
2022-11-11T07:21:35.763Z,10.66
2022-11-11T07:24:05.792Z,10.73
2022-11-11T07:26:34.295Z,10.64
2022-11-11T07:29:02.497Z,10.66
2022-11-11T07:31:30.735Z,10.71
2022-11-11T07:33:59.223Z,10.79
2022-11-11T07:36:28.865Z,10.78
2022-11-11T07:38:57.849Z,10.67
2022-11-11T07:41:26.030Z,10.71
2022-11-11T07:43:54.405Z,10.71
2022-11-11T07:46:22.784Z,10.80
2022-11-11T07:49:02.014Z,10.89
2022-11-11T07:51:38.566Z,10.75
2022-11-11T07:54:07.270Z,10.79
2022-11-11T07:56:35.354Z,10.79
2022-11-11T07:59:03.941Z,10.79
2022-11-11T08:01:32.130Z,10.98
2022-11-11T08:04:00.318Z,10.80
2022-11-11T08:06:28.662Z,10.97
2022-11-11T08:09:02.727Z,11.00
2022-11-11T08:11:59.989Z,11.04
2022-11-11T08:14:28.156Z,11.03
2022-11-11T08:16:56.256Z,11.05
2022-11-11T08:19:24.563Z,11.06
2022-11-11T08:21:53.310Z,11.01
2022-11-11T08:27:14.714Z,11.01
2022-11-11T08:29:45.421Z,11.13
2022-11-11T08:32:13.512Z,11.19
2022-11-11T08:34:41.694Z,11.27
2022-11-11T08:37:11.080Z,11.36
2022-11-11T08:39:42.040Z,11.21
2022-11-11T08:42:12.791Z,11.37
2022-11-11T08:44:43.200Z,11.37
2022-11-11T08:47:17.802Z,11.38
2022-11-11T08:49:50.086Z,11.22
2022-11-11T08:52:25.602Z,11.24
2022-11-11T08:54:55.306Z,11.25
2022-11-11T08:57:23.352Z,11.20
2022-11-11T09:00:17.601Z,11.22
2022-11-11T09:02:55.502Z,11.18
2022-11-11T09:05:23.834Z,11.25
2022-11-11T09:07:53.211Z,11.09
2022-11-11T09:10:26.039Z,11.40
2022-11-11T09:12:58.869Z,11.33
2022-11-11T09:15:28.182Z,11.17
2022-11-11T09:17:56.752Z,11.21
2022-11-11T09:20:27.867Z,11.12
2022-11-11T09:22:57.387Z,11.11
2022-11-11T09:25:30.261Z,11.23
2022-11-11T09:28:10.876Z,11.12
2022-11-11T09:30:39.066Z,11.26
2022-11-11T09:33:12.477Z,11.18
2022-11-11T09:35:40.551Z,11.31
2022-11-11T09:38:12.778Z,11.33
2022-11-11T09:41:05.276Z,11.45
2022-11-11T09:43:44.581Z,11.34
2022-11-11T09:46:21.749Z,11.46
2022-11-11T09:49:17.372Z,11.39
2022-11-11T09:51:50.087Z,11.44
2022-11-11T09:54:34.541Z,11.41
2022-11-11T09:57:10.495Z,11.54
2022-11-11T09:59:45.986Z,11.50
2022-11-11T10:02:27.771Z,11.40
2022-11-11T10:05:01.530Z,11.49
2022-11-11T10:07:38.404Z,11.52
2022-11-11T10:10:18.607Z,11.60
2022-11-11T10:12:57.305Z,11.53
2022-11-11T10:15:33.515Z,11.74
2022-11-11T10:18:27.754Z,11.68
2022-11-11T10:20:57.440Z,11.78
2022-11-11T10:23:31.408Z,11.92
2022-11-11T10:26:07.148Z,12.07
2022-11-11T10:28:38.747Z,11.90
2022-11-11T10:31:16.866Z,11.93
2022-11-11T10:33:52.573Z,11.78
2022-11-11T10:36:25.036Z,11.73
2022-11-11T10:39:00.522Z,11.81
2022-11-11T10:41:35.064Z,11.89
2022-11-11T10:44:20.447Z,11.92
2022-11-11T10:46:58.117Z,11.76
2022-11-11T10:49:31.335Z,12.05
2022-11-11T10:52:08.672Z,12.15
2022-11-11T10:54:44.263Z,12.24
2022-11-11T10:57:19.848Z,12.00
2022-11-11T10:59:57.139Z,12.10
2022-11-11T11:02:30.478Z,11.93
2022-11-11T11:05:14.584Z,12.19
2022-11-11T11:07:46.409Z,12.22
2022-11-11T11:10:19.488Z,12.07
2022-11-11T11:12:53.675Z,12.15
2022-11-11T11:15:26.543Z,12.51
2022-11-11T11:18:00.087Z,12.42
2022-11-11T11:20:29.223Z,12.57
2022-11-11T11:23:04.148Z,12.46
2022-11-11T11:25:34.337Z,12.53
2022-11-11T11:28:11.527Z,12.44
2022-11-11T11:30:41.887Z,12.49
2022-11-11T11:33:10.860Z,12.60
2022-11-11T11:35:40.291Z,12.74
2022-11-11T11:38:14.498Z,12.57
2022-11-11T11:40:53.920Z,12.76
2022-11-11T11:43:34.836Z,12.76
2022-11-11T11:46:15.347Z,12.66
2022-11-11T11:49:01.421Z,12.63
2022-11-11T11:51:34.969Z,12.60
2022-11-11T11:54:17.027Z,12.53
2022-11-11T11:56:49.740Z,12.36
2022-11-11T11:59:24.149Z,12.23
2022-11-11T12:02:01.547Z,12.21
2022-11-11T12:05:02.448Z,12.16
2022-11-11T12:07:47.396Z,12.04
2022-11-11T12:10:28.785Z,12.00
2022-11-11T12:13:06.157Z,12.20
2022-11-11T12:15:39.477Z,12.39
2022-11-11T12:18:59.778Z,12.44
2022-11-11T12:21:46.707Z,12.29
2022-11-11T12:24:33.129Z,12.12
2022-11-11T12:27:11.999Z,12.21
2022-11-11T12:29:55.562Z,12.20
2022-11-11T12:32:35.510Z,12.15
2022-11-11T12:35:22.457Z,12.17
2022-11-11T12:38:00.770Z,12.02
2022-11-11T12:40:40.943Z,12.10
2022-11-11T12:43:20.344Z,12.09
2022-11-11T12:45:50.773Z,12.22
2022-11-11T12:48:36.199Z,12.10
2022-11-11T12:51:15.401Z,12.08
2022-11-11T12:53:51.480Z,12.12
2022-11-11T12:56:33.960Z,12.05
2022-11-11T12:59:13.757Z,12.06
2022-11-11T13:01:53.534Z,11.85
2022-11-11T13:04:48.094Z,11.80
2022-11-11T13:07:42.101Z,11.55
2022-11-11T13:10:26.080Z,11.66
2022-11-11T13:13:07.041Z,11.61
2022-11-11T13:15:37.628Z,11.60
2022-11-11T13:18:17.177Z,11.44
2022-11-11T13:20:54.624Z,11.56
2022-11-11T13:23:35.384Z,11.67
2022-11-11T13:26:18.369Z,11.75
2022-11-11T13:37:39.452Z,11.84
2022-11-11T13:40:38.960Z,11.69
2022-11-11T13:46:50.141Z,11.90
2022-11-11T13:49:43.121Z,11.82
2022-11-11T13:52:29.370Z,11.99
2022-11-11T13:55:07.031Z,11.85
2022-11-11T13:57:49.445Z,11.93
2022-11-11T14:00:31.522Z,11.95
2022-11-11T14:03:30.151Z,11.82
2022-11-11T14:06:49.965Z,11.94
2022-11-11T14:09:56.757Z,12.13
2022-11-11T14:12:42.630Z,11.99
2022-11-11T14:15:37.258Z,12.15
2022-11-11T14:18:10.750Z,12.02
2022-11-11T14:20:44.239Z,12.02
2022-11-11T14:23:30.768Z,11.98
2022-11-11T14:26:27.627Z,12.02
2022-11-11T14:29:03.363Z,12.02
2022-11-11T14:32:03.300Z,11.88
2022-11-11T14:34:57.223Z,11.99
2022-11-11T14:37:40.630Z,11.80
2022-11-11T14:40:24.999Z,11.88
2022-11-11T14:42:54.029Z,11.80
2022-11-11T14:45:55.800Z,11.82
2022-11-11T14:49:10.219Z,11.80
2022-11-11T14:52:00.391Z,11.83
2022-11-11T14:54:43.332Z,11.83
2022-11-11T14:57:22.827Z,11.80
2022-11-11T14:59:52.076Z,11.83
2022-11-11T15:02:43.662Z,11.87
2022-11-11T15:05:18.395Z,11.79
2022-11-11T15:08:02.170Z,11.84
2022-11-11T15:10:59.912Z,11.77
2022-11-11T15:14:02.289Z,11.80
2022-11-11T15:16:57.121Z,11.72
2022-11-11T15:19:44.605Z,11.73
2022-11-11T15:22:27.557Z,11.76
2022-11-11T15:25:07.602Z,11.62
2022-11-11T15:27:44.529Z,11.72
2022-11-11T15:30:14.845Z,11.59
2022-11-11T15:33:00.979Z,11.69
2022-11-11T15:35:36.242Z,11.67
2022-11-11T15:38:07.029Z,11.57
2022-11-11T15:40:47.157Z,11.64
2022-11-11T15:43:18.864Z,11.66
2022-11-11T15:46:04.606Z,11.65
2022-11-11T15:48:42.631Z,11.58
2022-11-11T15:51:17.793Z,11.59
2022-11-11T15:53:46.305Z,11.63
2022-11-11T15:56:29.701Z,11.58
2022-11-11T15:58:58.085Z,11.64
2022-11-11T16:01:28.908Z,11.49
2022-11-11T16:03:57.472Z,11.50
2022-11-11T16:06:25.363Z,11.49
2022-11-11T16:08:56.636Z,11.50
2022-11-11T16:11:26.313Z,11.48
2022-11-11T16:13:59.781Z,11.46
2022-11-11T16:16:32.495Z,11.44
2022-11-11T16:19:05.405Z,11.50
2022-11-11T16:21:39.576Z,11.47
2022-11-11T16:24:19.962Z,11.43
2022-11-11T16:26:50.084Z,11.44
2022-11-11T16:29:21.126Z,11.44
2022-11-11T16:33:00.942Z,11.48
2022-11-11T16:34:48.228Z,11.34
2022-11-11T16:37:17.653Z,11.38
2022-11-11T16:39:46.614Z,11.38
2022-11-11T16:42:22.465Z,11.36
2022-11-11T16:44:56.294Z,11.30
2022-11-11T16:47:43.473Z,11.31
2022-11-11T16:50:15.863Z,11.33
2022-11-11T16:52:49.779Z,11.20
2022-11-11T16:55:25.352Z,11.18
2022-11-11T16:57:55.304Z,11.24
2022-11-11T17:00:25.045Z,11.16
2022-11-11T17:03:11.054Z,11.14
2022-11-11T17:05:50.703Z,11.22
2022-11-11T17:08:35.687Z,11.15
2022-11-11T17:11:05.262Z,11.06
2022-11-11T17:13:42.044Z,11.09
2022-11-11T17:16:12.426Z,11.04
2022-11-11T17:18:41.547Z,11.04
2022-11-11T17:21:09.531Z,11.11
2022-11-11T17:23:40.566Z,11.08
2022-11-11T17:26:08.933Z,11.02
2022-11-11T17:28:38.728Z,10.99
2022-11-11T17:31:07.436Z,11.00
2022-11-11T17:33:35.350Z,11.03
2022-11-11T17:36:03.209Z,11.02
2022-11-11T17:38:36.861Z,10.96
2022-11-11T17:41:05.088Z,10.93
2022-11-11T17:43:33.115Z,10.90
2022-11-11T17:46:03.897Z,10.90
2022-11-11T17:48:31.819Z,10.87
2022-11-11T17:50:59.971Z,10.87
2022-11-11T17:53:28.205Z,10.82
2022-11-11T17:56:01.940Z,10.85
2022-11-11T17:58:29.782Z,10.72
2022-11-11T18:01:07.402Z,10.62
2022-11-11T18:03:35.332Z,10.38
2022-11-11T18:06:03.212Z,10.23
2022-11-11T18:08:31.410Z,10.03
2022-11-11T18:11:04.675Z,9.78
2022-11-11T18:13:33.292Z,9.50
2022-11-11T18:16:06.394Z,9.52
2022-11-11T18:18:36.098Z,9.40
2022-11-11T18:21:06.304Z,9.30
2022-11-11T18:23:35.585Z,9.23
2022-11-11T18:26:04.168Z,9.17
2022-11-11T18:28:32.643Z,8.98
2022-11-11T18:31:08.051Z,8.70
2022-11-11T18:36:36.022Z,8.47
2022-11-11T18:39:05.170Z,8.42
2022-11-11T18:41:33.398Z,8.37
2022-11-11T18:44:01.421Z,8.36
2022-11-11T18:46:32.269Z,8.31
2022-11-11T18:49:04.428Z,8.23
2022-11-11T18:51:34.731Z,8.38
2022-11-11T18:54:09.402Z,8.10
2022-11-11T18:56:40.957Z,7.74
2022-11-11T19:03:31.891Z,7.65
2022-11-11T19:07:13.415Z,7.83
2022-11-11T19:09:59.694Z,7.78
2022-11-11T19:12:35.415Z,7.40
2022-11-11T19:15:09.894Z,7.32
2022-11-11T19:17:37.994Z,7.42
2022-11-11T19:20:08.458Z,7.50
2022-11-11T19:22:36.974Z,7.31
2022-11-11T19:25:12.776Z,7.35
2022-11-11T19:27:40.774Z,7.30
2022-11-11T19:30:42.287Z,7.06
2022-11-11T19:35:59.400Z,6.99
2022-11-11T19:38:28.978Z,7.24
2022-11-11T19:40:58.607Z,7.24
2022-11-11T19:43:28.080Z,7.12
2022-11-11T19:45:59.691Z,7.25
2022-11-11T19:48:27.647Z,7.26
2022-11-11T19:50:55.546Z,7.03
2022-11-11T19:53:29.963Z,7.00
2022-11-11T19:56:01.847Z,7.00
2022-11-11T19:58:31.182Z,6.80
2022-11-11T20:01:00.379Z,6.77
2022-11-11T20:03:28.811Z,6.87
2022-11-11T20:05:56.911Z,6.71
2022-11-11T20:08:24.921Z,6.77
2022-11-11T20:10:53.847Z,6.71
2022-11-11T20:13:23.732Z,6.84
2022-11-11T20:15:52.619Z,6.96
2022-11-11T20:18:20.488Z,6.81
2022-11-11T20:20:50.615Z,6.65
2022-11-11T20:23:22.445Z,6.53
2022-11-11T20:25:51.483Z,6.63
2022-11-11T20:28:19.448Z,6.61
2022-11-11T20:30:55.466Z,6.76
2022-11-11T20:33:23.705Z,6.88
2022-11-11T20:35:51.773Z,6.69
2022-11-11T20:38:19.918Z,6.52
2022-11-11T20:40:48.286Z,6.56
2022-11-11T20:43:18.389Z,6.51
2022-11-11T20:45:48.706Z,6.57
2022-11-11T20:48:18.695Z,6.60
2022-11-11T20:50:46.708Z,6.51
2022-11-11T20:53:15.435Z,6.59
2022-11-11T20:55:43.433Z,6.52
2022-11-11T20:58:12.546Z,6.72
2022-11-11T21:00:40.517Z,6.81
2022-11-11T21:03:08.450Z,6.91
2022-11-11T21:05:37.793Z,6.94
2022-11-11T21:08:05.935Z,6.90
2022-11-11T21:10:34.040Z,7.02
2022-11-11T21:13:01.916Z,7.09
2022-11-11T21:15:30.403Z,6.93
2022-11-11T21:17:58.360Z,6.99
2022-11-11T21:20:26.391Z,7.13
2022-11-11T21:22:55.576Z,7.14
2022-11-11T21:25:23.514Z,7.17
2022-11-11T21:27:57.483Z,7.23
2022-11-11T21:33:46.344Z,7.35
2022-11-11T21:36:24.915Z,7.19
2022-11-11T21:38:54.485Z,7.28
2022-11-11T21:41:57.889Z,7.28
2022-11-11T21:44:57.440Z,7.12
2022-11-11T21:47:25.275Z,7.10
2022-11-11T21:50:01.368Z,7.10
2022-11-11T21:52:40.849Z,7.12
2022-11-11T21:55:13.966Z,7.13
2022-11-11T21:57:41.839Z,7.07
2022-11-11T22:00:18.071Z,6.90
2022-11-11T22:02:46.110Z,6.84
2022-11-11T22:05:13.988Z,6.78
2022-11-11T22:07:44.878Z,6.63
2022-11-11T22:10:20.754Z,6.58
2022-11-11T22:12:51.879Z,6.38
2022-11-11T22:15:20.159Z,6.50
2022-11-11T22:17:48.062Z,6.45
2022-11-11T22:20:16.635Z,6.40
2022-11-11T22:22:47.094Z,6.24
2022-11-11T22:25:18.313Z,6.32
2022-11-11T22:27:46.294Z,6.35
2022-11-11T22:30:14.549Z,6.28
2022-11-11T22:32:42.413Z,6.27
2022-11-11T22:35:10.277Z,6.16
2022-11-11T22:37:38.148Z,6.16
2022-11-11T22:40:07.413Z,6.21
2022-11-11T22:42:37.259Z,6.09
2022-11-11T22:45:05.850Z,6.12
2022-11-11T22:47:33.695Z,6.24
2022-11-11T22:50:01.516Z,6.22
2022-11-11T22:52:29.368Z,5.93
2022-11-11T22:54:57.291Z,5.86
2022-11-11T22:57:30.717Z,5.76
2022-11-11T23:00:00.153Z,5.57
2022-11-11T23:02:28.021Z,5.39
2022-11-11T23:05:24.219Z,5.58
2022-11-11T23:07:53.482Z,5.32
2022-11-11T23:10:25.418Z,5.29
2022-11-11T23:12:58.390Z,5.42
2022-11-11T23:15:28.045Z,5.43
2022-11-11T23:17:56.097Z,5.54
2022-11-11T23:20:24.105Z,5.19
2022-11-11T23:22:51.960Z,5.23
2022-11-11T23:25:20.025Z,5.19
2022-11-11T23:27:49.121Z,5.45
2022-11-11T23:30:17.313Z,5.06
2022-11-11T23:32:46.663Z,5.09
2022-11-11T23:35:15.731Z,4.86
2022-11-11T23:37:43.538Z,4.86
2022-11-11T23:40:15.458Z,4.71
2022-11-11T23:42:43.210Z,4.92
2022-11-11T23:45:11.480Z,5.05
2022-11-11T23:47:39.454Z,4.82
2022-11-11T23:50:10.282Z,4.67
2022-11-11T23:52:53.560Z,4.68
2022-11-11T23:55:23.834Z,4.80
2022-11-11T23:57:57.018Z,4.98
